Time;durP1;ratioP1;P1;durP2;ratioP2;P2;SDS_P1;SDS_P2;PMS_P1;PMS_P2;Temp;Humidity;BMP_temperature;BMP_pressure;BME280_temperature;BME280_humidity;BME280_pressure;Samples;Min_cycle;Max_cycle;Signal;HPM_P1;HPM_P2
2022/07/06 00:02:00;;;;;;;2.08;0.70;;;;;;;;;;5033499;28;20313;-13
2022/07/06 00:04:28;;;;;;;2.60;0.63;;;;;;;;;;5033058;28;21215;-14
2022/07/06 00:06:55;;;;;;;1.40;0.90;;;;;;;;;;5031113;28;20729;-13
2022/07/06 00:09:23;;;;;;;2.47;0.80;;;;;;;;;;5031502;28;20289;-13
2022/07/06 00:11:50;;;;;;;2.85;0.90;;;;;;;;;;5033652;28;20269;-13
2022/07/06 00:14:18;;;;;;;1.55;0.70;;;;;;;;;;5035512;28;20293;-13
2022/07/06 00:16:46;;;;;;;3.53;0.90;;;;;;;;;;5033796;28;21124;-13
2022/07/06 00:19:14;;;;;;;2.25;1.00;;;;;;;;;;5033398;28;20234;-13
2022/07/06 00:21:41;;;;;;;2.67;1.05;;;;;;;;;;5041098;28;20309;-14
2022/07/06 00:24:09;;;;;;;1.75;0.70;;;;;;;;;;5032645;28;20325;-14
2022/07/06 00:26:36;;;;;;;1.98;0.80;;;;;;;;;;5036017;28;20325;-14
2022/07/06 00:29:04;;;;;;;2.17;0.70;;;;;;;;;;5034511;28;20305;-13
2022/07/06 00:31:31;;;;;;;1.05;0.63;;;;;;;;;;5032010;28;20384;-14
2022/07/06 00:34:00;;;;;;;2.10;0.65;;;;;;;;;;5046905;28;20234;-14
2022/07/06 00:36:27;;;;;;;1.50;0.60;;;;;;;;;;5044910;28;20258;-13
2022/07/06 00:38:55;;;;;;;2.15;0.80;;;;;;;;;;5036126;28;20317;-14
2022/07/06 00:41:22;;;;;;;1.30;0.70;;;;;;;;;;5036235;28;20415;-14
2022/07/06 00:43:50;;;;;;;0.85;0.65;;;;;;;;;;5037078;28;20238;-14
2022/07/06 00:46:17;;;;;;;2.05;0.70;;;;;;;;;;5035765;28;21074;-14
2022/07/06 00:48:45;;;;;;;1.98;0.50;;;;;;;;;;5035916;28;20257;-14
2022/07/06 00:51:14;;;;;;;2.35;1.00;;;;;;;;;;5035854;28;20286;-14
2022/07/06 00:53:41;;;;;;;1.92;0.82;;;;;;;;;;5040431;28;20306;-14
2022/07/06 00:56:08;;;;;;;0.60;0.60;;;;;;;;;;5034630;28;20254;-14
2022/07/06 00:58:36;;;;;;;2.13;0.85;;;;;;;;;;5034110;28;20322;-14
2022/07/06 01:01:03;;;;;;;2.88;0.70;;;;;;;;;;5037711;28;20238;-14
2022/07/06 01:03:31;;;;;;;1.80;0.80;;;;;;;;;;5044069;28;20317;-14
2022/07/06 01:05:58;;;;;;;1.25;0.70;;;;;;;;;;5042128;28;20321;-14
2022/07/06 01:08:27;;;;;;;1.17;0.80;;;;;;;;;;5037960;28;20587;-14
2022/07/06 01:10:54;;;;;;;2.42;0.77;;;;;;;;;;5038674;28;21125;-14
2022/07/06 01:13:22;;;;;;;1.77;0.70;;;;;;;;;;5036146;28;20694;-14
2022/07/06 01:15:49;;;;;;;1.60;0.60;;;;;;;;;;5035894;28;20740;-14
2022/07/06 01:18:16;;;;;;;2.45;0.77;;;;;;;;;;5038553;28;20245;-14
2022/07/06 01:20:45;;;;;;;2.30;0.70;;;;;;;;;;5041583;28;20885;-14
2022/07/06 01:23:13;;;;;;;1.58;0.65;;;;;;;;;;5043249;28;21057;-14
2022/07/06 01:25:41;;;;;;;2.63;0.88;;;;;;;;;;5039851;28;20607;-14
2022/07/06 01:28:08;;;;;;;1.60;0.70;;;;;;;;;;5046304;28;20718;-14
2022/07/06 01:30:35;;;;;;;2.25;0.80;;;;;;;;;;5041178;28;20235;-14
2022/07/06 01:33:03;;;;;;;2.70;0.75;;;;;;;;;;5042526;28;20234;-14
2022/07/06 01:35:30;;;;;;;1.55;0.77;;;;;;;;;;5041247;28;20227;-14
2022/07/06 01:37:59;;;;;;;2.95;0.95;;;;;;;;;;5044912;28;20261;-14
2022/07/06 01:40:26;;;;;;;1.52;0.70;;;;;;;;;;5037187;28;21049;-14
2022/07/06 01:42:53;;;;;;;3.22;0.82;;;;;;;;;;5037097;28;20233;-14
2022/07/06 01:45:21;;;;;;;1.42;0.70;;;;;;;;;;5037125;28;20234;-14
2022/07/06 01:47:48;;;;;;;1.50;0.68;;;;;;;;;;5035544;28;20242;-14
2022/07/06 01:50:15;;;;;;;1.67;0.80;;;;;;;;;;5043545;28;20235;-14
2022/07/06 01:52:43;;;;;;;2.47;0.57;;;;;;;;;;5045435;28;20230;-14
2022/07/06 01:55:11;;;;;;;2.00;0.75;;;;;;;;;;5040669;28;20233;-14
2022/07/06 01:57:39;;;;;;;2.13;0.75;;;;;;;;;;5038945;28;20241;-14
2022/07/06 02:00:07;;;;;;;2.08;0.60;;;;;;;;;;5038883;28;20231;-14
2022/07/06 02:02:34;;;;;;;2.58;0.70;;;;;;;;;;5040737;28;20226;-14
2022/07/06 02:05:02;;;;;;;1.42;0.73;;;;;;;;;;5036070;28;20235;-14
2022/07/06 02:07:29;;;;;;;1.25;0.80;;;;;;;;;;5044253;28;20231;-14
2022/07/06 02:09:56;;;;;;;3.10;0.80;;;;;;;;;;5045606;28;20222;-14
2022/07/06 02:12:25;;;;;;;1.65;0.75;;;;;;;;;;5037253;28;20231;-14
2022/07/06 02:14:52;;;;;;;1.42;0.70;;;;;;;;;;5038927;28;20237;-14
2022/07/06 02:17:20;;;;;;;1.38;0.80;;;;;;;;;;5037480;28;20916;-14
2022/07/06 02:19:47;;;;;;;1.40;0.50;;;;;;;;;;5036924;28;20230;-14
2022/07/06 02:22:14;;;;;;;1.58;0.70;;;;;;;;;;5063181;22;20253;-14
2022/07/06 02:24:42;;;;;;;1.30;0.70;;;;;;;;;;5043539;28;21066;-16
2022/07/06 02:27:09;;;;;;;2.20;0.82;;;;;;;;;;5041978;28;20737;-16
2022/07/06 02:29:38;;;;;;;3.22;0.73;;;;;;;;;;5048618;28;20244;-16
2022/07/06 02:32:05;;;;;;;1.55;0.77;;;;;;;;;;5050206;28;20240;-16
2022/07/06 02:34:33;;;;;;;1.73;0.63;;;;;;;;;;5047247;28;20313;-16
2022/07/06 02:37:01;;;;;;;1.40;0.70;;;;;;;;;;5048201;28;20226;-16
2022/07/06 02:39:28;;;;;;;1.02;0.52;;;;;;;;;;5047421;28;20241;-16
2022/07/06 02:41:56;;;;;;;1.55;0.75;;;;;;;;;;5041290;28;20229;-16
2022/07/06 02:44:23;;;;;;;1.33;0.70;;;;;;;;;;5040811;28;20241;-16
2022/07/06 02:46:52;;;;;;;1.27;0.63;;;;;;;;;;5043848;28;20236;-16
2022/07/06 02:49:19;;;;;;;1.77;0.98;;;;;;;;;;5051046;28;20234;-16
2022/07/06 02:51:46;;;;;;;1.00;0.63;;;;;;;;;;5050610;28;20731;-15
2022/07/06 02:54:14;;;;;;;2.00;0.70;;;;;;;;;;5042939;28;20241;-16
2022/07/06 02:56:41;;;;;;;2.03;0.80;;;;;;;;;;5046495;28;20262;-16
2022/07/06 02:59:08;;;;;;;2.92;0.80;;;;;;;;;;5049690;28;20368;-16
2022/07/06 03:01:40;;;;;;;1.27;0.68;;;;;;;;;;5044954;28;20230;-16
2022/07/06 03:04:09;;;;;;;1.02;0.60;;;;;;;;;;5047970;28;20236;-16
2022/07/06 03:06:36;;;;;;;1.80;0.73;;;;;;;;;;5051088;28;20230;-16
2022/07/06 03:09:04;;;;;;;2.10;0.85;;;;;;;;;;5048569;28;20241;-16
2022/07/06 03:11:35;;;;;;;1.67;0.85;;;;;;;;;;5048463;28;20237;-16
2022/07/06 03:14:03;;;;;;;1.63;0.70;;;;;;;;;;5051090;28;20230;-16
2022/07/06 03:16:31;;;;;;;0.98;0.68;;;;;;;;;;5048068;28;20289;-16
2022/07/06 03:18:58;;;;;;;1.85;0.82;;;;;;;;;;5051158;28;20233;-16
2022/07/06 03:21:27;;;;;;;2.92;1.00;;;;;;;;;;5050045;28;20768;-16
2022/07/06 03:23:54;;;;;;;2.10;0.77;;;;;;;;;;5040539;28;20235;-16
2022/07/06 03:26:22;;;;;;;1.60;0.70;;;;;;;;;;5041294;28;20256;-16
2022/07/06 03:28:49;;;;;;;2.42;0.95;;;;;;;;;;5036656;28;20241;-16
2022/07/06 03:31:16;;;;;;;1.20;0.90;;;;;;;;;;5046176;28;20230;-16
2022/07/06 03:33:44;;;;;;;2.15;0.77;;;;;;;;;;5043472;28;20229;-16
2022/07/06 03:36:11;;;;;;;0.88;0.55;;;;;;;;;;5039769;28;20273;-16
2022/07/06 03:38:40;;;;;;;2.05;0.70;;;;;;;;;;5050348;28;20230;-16
2022/07/06 03:41:07;;;;;;;2.13;0.70;;;;;;;;;;5038228;28;20226;-16
2022/07/06 03:43:34;;;;;;;2.38;0.73;;;;;;;;;;5042827;28;20238;-15
2022/07/06 03:46:02;;;;;;;1.95;0.75;;;;;;;;;;5048978;28;20226;-16
2022/07/06 03:48:29;;;;;;;1.35;0.80;;;;;;;;;;5038320;28;20313;-16
2022/07/06 03:50:56;;;;;;;3.42;0.90;;;;;;;;;;5041810;28;20246;-16
2022/07/06 03:53:24;;;;;;;3.33;0.70;;;;;;;;;;5040985;28;20230;-16
2022/07/06 03:58:34;;;;;;;2.92;0.70;;;;;;;;;;5041360;28;20716;-16
2022/07/06 04:01:01;;;;;;;1.77;1.00;;;;;;;;;;5041871;28;20239;-16
2022/07/06 04:03:29;;;;;;;1.02;0.57;;;;;;;;;;5039277;28;20238;-16
2022/07/06 04:06:00;;;;;;;0.93;0.70;;;;;;;;;;5043329;28;20238;-16
2022/07/06 04:08:27;;;;;;;1.95;1.00;;;;;;;;;;5043657;28;21153;-16
2022/07/06 04:10:56;;;;;;;2.53;0.70;;;;;;;;;;5044399;28;20710;-16
2022/07/06 04:13:25;;;;;;;1.75;0.80;;;;;;;;;;5051328;28;20242;-16
2022/07/06 04:15:52;;;;;;;4.55;0.95;;;;;;;;;;5046607;28;20235;-16
2022/07/06 04:18:19;;;;;;;1.80;0.70;;;;;;;;;;5041495;28;20705;-16
2022/07/06 04:20:47;;;;;;;2.50;0.90;;;;;;;;;;5034097;28;20277;-16
2022/07/06 04:23:15;;;;;;;5.60;1.00;;;;;;;;;;5041483;28;20313;-16
2022/07/06 04:25:42;;;;;;;1.58;0.60;;;;;;;;;;5045227;28;21018;-16
2022/07/06 04:28:11;;;;;;;2.22;0.80;;;;;;;;;;5038915;28;20226;-16
2022/07/06 04:30:38;;;;;;;2.30;0.80;;;;;;;;;;5042470;28;20262;-16
2022/07/06 04:33:05;;;;;;;3.00;0.77;;;;;;;;;;5040512;28;20847;-16
2022/07/06 04:35:33;;;;;;;2.95;0.70;;;;;;;;;;5041740;28;21011;-16
2022/07/06 04:38:00;;;;;;;3.33;0.82;;;;;;;;;;5046128;28;20261;-16
2022/07/06 04:40:27;;;;;;;4.13;1.10;;;;;;;;;;5041369;28;20238;-16
2022/07/06 04:42:55;;;;;;;2.00;0.75;;;;;;;;;;5039768;28;20238;-16
2022/07/06 04:45:23;;;;;;;1.50;0.85;;;;;;;;;;5039873;28;20263;-16
2022/07/06 04:47:51;;;;;;;2.13;0.57;;;;;;;;;;5039446;28;20261;-16
2022/07/06 04:50:18;;;;;;;2.33;0.80;;;;;;;;;;5033743;28;20717;-16
2022/07/06 04:52:45;;;;;;;1.35;0.70;;;;;;;;;;5038873;28;20687;-16
2022/07/06 04:55:14;;;;;;;2.53;0.70;;;;;;;;;;5046057;28;20263;-16
2022/07/06 04:57:41;;;;;;;1.67;0.70;;;;;;;;;;5045572;28;20238;-16
2022/07/06 05:00:09;;;;;;;2.35;0.60;;;;;;;;;;5046343;28;20234;-16
2022/07/06 05:02:38;;;;;;;2.13;0.95;;;;;;;;;;5046740;28;20968;-16
2022/07/06 05:05:06;;;;;;;1.50;0.45;;;;;;;;;;5044209;28;20238;-16
2022/07/06 05:07:38;;;;;;;4.10;0.90;;;;;;;;;;5039975;28;20234;-16
2022/07/06 05:10:05;;;;;;;2.22;0.60;;;;;;;;;;5042980;28;20249;-16
2022/07/06 05:12:33;;;;;;;2.95;0.75;;;;;;;;;;5035471;28;20322;-16
2022/07/06 05:15:00;;;;;;;1.55;0.70;;;;;;;;;;5048862;28;20222;-16
2022/07/06 05:17:28;;;;;;;2.75;0.95;;;;;;;;;;5048995;28;20979;-16
2022/07/06 05:19:57;;;;;;;2.53;1.00;;;;;;;;;;5038819;28;20230;-16
2022/07/06 05:22:25;;;;;;;3.08;0.80;;;;;;;;;;5042553;28;20625;-16
2022/07/06 05:24:52;;;;;;;2.20;0.90;;;;;;;;;;5046531;28;20238;-16
2022/07/06 05:27:19;;;;;;;5.03;1.08;;;;;;;;;;5038478;28;20237;-16
2022/07/06 05:29:47;;;;;;;1.30;0.80;;;;;;;;;;5040836;28;20254;-16
2022/07/06 05:32:14;;;;;;;3.80;0.77;;;;;;;;;;5042967;28;20714;-16
2022/07/06 05:34:41;;;;;;;2.42;0.80;;;;;;;;;;5048420;28;20237;-16
2022/07/06 05:37:10;;;;;;;4.05;0.80;;;;;;;;;;5036145;28;20242;-16
2022/07/06 05:39:38;;;;;;;3.75;0.90;;;;;;;;;;5048038;28;20230;-16
2022/07/06 05:42:09;;;;;;;3.90;0.90;;;;;;;;;;5043384;28;20717;-16
2022/07/06 05:44:36;;;;;;;3.50;0.85;;;;;;;;;;5037164;28;20237;-16
2022/07/06 05:52:31;;;;;;;4.18;0.50;;;;;;;;;;5049950;28;20319;-16
2022/07/06 05:54:59;;;;;;;7.90;0.70;;;;;;;;;;5044298;28;20632;-16
2022/07/06 05:57:26;;;;;;;2.60;1.10;;;;;;;;;;5039005;28;20758;-16
2022/07/06 05:59:53;;;;;;;2.97;0.65;;;;;;;;;;5043141;28;21501;-16
2022/07/06 06:02:21;;;;;;;2.28;0.80;;;;;;;;;;5041849;28;20231;-16
2022/07/06 06:04:48;;;;;;;1.90;0.52;;;;;;;;;;5048363;28;20729;-16
2022/07/06 06:07:16;;;;;;;2.92;0.70;;;;;;;;;;5038778;28;20246;-16
2022/07/06 06:09:44;;;;;;;1.15;0.50;;;;;;;;;;5041023;28;20248;-16
2022/07/06 06:12:12;;;;;;;1.85;0.52;;;;;;;;;;5042712;28;20234;-16
2022/07/06 06:14:39;;;;;;;1.17;0.40;;;;;;;;;;5045602;28;20230;-16
2022/07/06 06:17:09;;;;;;;4.15;0.80;;;;;;;;;;5042600;28;20241;-16
2022/07/06 06:19:37;;;;;;;2.75;0.55;;;;;;;;;;5038750;28;20242;-16
2022/07/06 06:22:05;;;;;;;2.90;0.80;;;;;;;;;;5046067;28;20246;-16
2022/07/06 06:24:32;;;;;;;4.90;0.95;;;;;;;;;;5043200;28;20229;-16
2022/07/06 06:27:01;;;;;;;3.70;0.70;;;;;;;;;;5040204;28;20241;-16
2022/07/06 06:29:28;;;;;;;1.58;0.55;;;;;;;;;;5039657;28;20250;-16
2022/07/06 06:31:55;;;;;;;3.05;0.60;;;;;;;;;;5042450;28;20959;-16
2022/07/06 06:34:23;;;;;;;2.42;0.80;;;;;;;;;;5038526;28;20235;-16
2022/07/06 06:36:50;;;;;;;3.92;0.85;;;;;;;;;;5043951;28;20237;-16
2022/07/06 06:39:18;;;;;;;1.17;0.50;;;;;;;;;;5050187;28;20791;-16
2022/07/06 06:41:45;;;;;;;2.63;0.68;;;;;;;;;;5048005;28;20229;-16
2022/07/06 06:44:14;;;;;;;2.95;1.33;;;;;;;;;;5050886;28;20234;-16
2022/07/06 06:46:41;;;;;;;7.68;0.73;;;;;;;;;;5050799;28;20241;-16
2022/07/06 06:49:09;;;;;;;3.00;0.50;;;;;;;;;;5046097;28;20226;-16
2022/07/06 06:51:37;;;;;;;4.95;0.90;;;;;;;;;;5050240;28;20248;-16
2022/07/06 06:54:04;;;;;;;2.03;0.57;;;;;;;;;;5050679;28;20321;-16
2022/07/06 06:56:32;;;;;;;5.60;0.65;;;;;;;;;;5050754;28;20238;-16
2022/07/06 06:58:59;;;;;;;4.72;0.70;;;;;;;;;;5050151;28;20238;-16
2022/07/06 07:01:46;;;;;;;2.85;0.80;;;;;;;;;;5050113;28;20230;-16
2022/07/06 07:04:22;;;;;;;2.50;0.60;;;;;;;;;;5049784;28;20229;-16
2022/07/06 07:06:49;;;;;;;1.65;0.50;;;;;;;;;;5048829;28;20238;-16
2022/07/06 07:09:17;;;;;;;2.33;0.80;;;;;;;;;;5049780;28;20230;-16
2022/07/06 07:11:44;;;;;;;4.80;0.60;;;;;;;;;;5050711;28;20332;-16
2022/07/06 07:14:11;;;;;;;3.38;0.90;;;;;;;;;;5049472;28;20229;-16
2022/07/06 07:16:39;;;;;;;4.95;0.90;;;;;;;;;;5050493;28;20230;-16
2022/07/06 07:19:08;;;;;;;3.95;0.70;;;;;;;;;;5050531;28;20292;-16
2022/07/06 07:21:35;;;;;;;1.65;0.50;;;;;;;;;;5049905;28;20253;-16
2022/07/06 07:24:03;;;;;;;3.00;0.60;;;;;;;;;;5047980;28;20242;-16
2022/07/06 07:26:36;;;;;;;2.75;0.70;;;;;;;;;;5048718;28;20234;-16
2022/07/06 07:29:04;;;;;;;1.33;0.57;;;;;;;;;;5046634;28;20272;-16
2022/07/06 07:31:31;;;;;;;3.03;0.63;;;;;;;;;;5045761;28;20233;-16
2022/07/06 07:33:59;;;;;;;1.63;0.57;;;;;;;;;;5049285;28;20275;-16
2022/07/06 07:36:27;;;;;;;2.00;0.70;;;;;;;;;;5049612;28;20240;-16
2022/07/06 07:38:55;;;;;;;4.07;0.60;;;;;;;;;;5046830;28;20234;-16
2022/07/06 07:41:22;;;;;;;2.17;0.80;;;;;;;;;;5046877;28;20325;-16
2022/07/06 07:43:49;;;;;;;6.43;0.70;;;;;;;;;;5049713;28;20233;-16
2022/07/06 07:46:17;;;;;;;10.38;1.20;;;;;;;;;;5054232;28;20252;-16
2022/07/06 07:48:44;;;;;;;9.65;0.70;;;;;;;;;;5054010;28;20226;-15
2022/07/06 07:51:11;;;;;;;5.60;0.52;;;;;;;;;;5054390;28;20234;-16
2022/07/06 07:53:40;;;;;;;6.68;0.77;;;;;;;;;;5053699;28;20320;-16
2022/07/06 07:56:08;;;;;;;6.75;0.70;;;;;;;;;;5053208;28;20241;-16
2022/07/06 07:58:35;;;;;;;5.53;0.70;;;;;;;;;;5050494;28;20241;-16
2022/07/06 08:01:04;;;;;;;2.28;0.68;;;;;;;;;;5049411;28;20230;-16
2022/07/06 08:03:31;;;;;;;6.28;0.70;;;;;;;;;;5043272;28;21045;-16
2022/07/06 08:05:58;;;;;;;8.38;0.80;;;;;;;;;;5048125;28;20430;-15
2022/07/06 08:08:26;;;;;;;14.65;0.93;;;;;;;;;;5051870;28;20445;-15
2022/07/06 08:10:55;;;;;;;6.47;0.80;;;;;;;;;;5049462;28;20241;-15
2022/07/06 08:13:43;;;;;;;5.35;0.47;;;;;;;;;;5051081;28;20312;-15
2022/07/06 08:16:10;;;;;;;8.60;0.52;;;;;;;;;;5050187;28;20242;-15
2022/07/06 08:18:38;;;;;;;3.00;0.55;;;;;;;;;;5051720;28;20234;-15
2022/07/06 08:21:05;;;;;;;3.70;0.55;;;;;;;;;;5048861;28;20238;-15
2022/07/06 08:23:51;;;;;;;9.00;0.73;;;;;;;;;;5050880;28;20226;-15
2022/07/06 08:26:20;;;;;;;2.45;0.50;;;;;;;;;;5050391;28;20731;-15
2022/07/06 08:28:47;;;;;;;2.85;0.50;;;;;;;;;;5050829;28;20961;-15
2022/07/06 08:31:15;;;;;;;4.10;0.60;;;;;;;;;;5050939;28;20246;-15
2022/07/06 08:34:02;;;;;;;3.50;0.50;;;;;;;;;;5044691;28;20261;-15
2022/07/06 08:36:30;;;;;;;5.85;0.60;;;;;;;;;;5050460;28;20238;-16
2022/07/06 08:38:57;;;;;;;4.53;0.50;;;;;;;;;;5046585;28;20811;-15
2022/07/06 08:41:26;;;;;;;2.25;0.45;;;;;;;;;;5050059;28;20313;-16
2022/07/06 08:43:53;;;;;;;5.00;0.50;;;;;;;;;;5051197;28;21245;-16
2022/07/06 08:46:21;;;;;;;0.93;0.40;;;;;;;;;;5050129;28;20226;-15
2022/07/06 08:48:49;;;;;;;4.18;0.70;;;;;;;;;;5050150;28;21035;-16
2022/07/06 08:51:16;;;;;;;5.45;0.50;;;;;;;;;;5051122;28;20238;-15
2022/07/06 08:53:44;;;;;;;0.57;0.32;;;;;;;;;;5050253;28;20234;-16
2022/07/06 08:56:12;;;;;;;3.63;0.30;;;;;;;;;;5051322;28;20237;-16
2022/07/06 08:58:41;;;;;;;3.42;0.40;;;;;;;;;;5047712;28;20234;-15
2022/07/06 09:01:09;;;;;;;1.10;0.38;;;;;;;;;;5051358;28;20238;-15
2022/07/06 09:03:37;;;;;;;3.25;0.50;;;;;;;;;;5045984;28;20277;-16
2022/07/06 09:06:04;;;;;;;1.45;0.50;;;;;;;;;;5048986;28;20236;-16
2022/07/06 09:08:32;;;;;;;3.50;0.30;;;;;;;;;;5046813;28;20242;-16
2022/07/06 09:10:59;;;;;;;3.30;0.40;;;;;;;;;;5049678;28;20252;-15
2022/07/06 09:13:26;;;;;;;2.05;0.35;;;;;;;;;;5048772;28;20296;-16
2022/07/06 09:15:56;;;;;;;0.90;0.30;;;;;;;;;;5050903;28;20230;-15
2022/07/06 09:18:44;;;;;;;3.42;0.50;;;;;;;;;;5048921;28;20257;-16
2022/07/06 09:21:11;;;;;;;1.88;0.43;;;;;;;;;;5047728;28;20352;-15
2022/07/06 09:23:39;;;;;;;2.25;0.40;;;;;;;;;;5050179;28;20230;-15
2022/07/06 09:26:06;;;;;;;1.00;0.25;;;;;;;;;;5049457;28;20238;-15
2022/07/06 09:28:43;;;;;;;2.00;0.50;;;;;;;;;;5048676;28;20234;-15
2022/07/06 09:31:11;;;;;;;1.83;0.30;;;;;;;;;;5049218;28;20656;-15
2022/07/06 09:33:53;;;;;;;1.40;0.43;;;;;;;;;;5050360;28;20241;-15
2022/07/06 09:36:27;;;;;;;2.50;0.32;;;;;;;;;;5047296;28;20320;-15
2022/07/06 09:38:54;;;;;;;1.08;0.30;;;;;;;;;;5050779;28;20234;-15
2022/07/06 09:41:31;;;;;;;2.10;0.50;;;;;;;;;;5049436;28;20241;-15
2022/07/06 09:43:58;;;;;;;1.63;0.30;;;;;;;;;;5047756;28;20238;-15
2022/07/06 09:46:27;;;;;;;1.95;0.47;;;;;;;;;;5048265;28;20328;-15
2022/07/06 09:48:54;;;;;;;1.90;0.52;;;;;;;;;;5048732;28;20303;-15
2022/07/06 09:51:22;;;;;;;0.93;0.40;;;;;;;;;;5048078;28;20246;-15
2022/07/06 09:53:54;;;;;;;0.88;0.28;;;;;;;;;;5050710;28;20317;-15
2022/07/06 09:56:21;;;;;;;1.38;0.50;;;;;;;;;;5047197;28;20354;-15
2022/07/06 09:58:51;;;;;;;2.15;0.35;;;;;;;;;;5048061;28;20238;-15
2022/07/06 10:01:31;;;;;;;3.08;0.40;;;;;;;;;;5046050;28;20222;-15
2022/07/06 10:03:58;;;;;;;1.38;0.28;;;;;;;;;;5046135;28;20238;-15
2022/07/06 10:06:26;;;;;;;1.10;0.25;;;;;;;;;;5044377;28;20226;-15
2022/07/06 10:08:53;;;;;;;0.98;0.40;;;;;;;;;;5046470;28;20281;-15
2022/07/06 10:11:21;;;;;;;2.35;0.30;;;;;;;;;;5046112;28;20246;-15
2022/07/06 10:13:48;;;;;;;1.05;0.40;;;;;;;;;;5045923;28;20238;-16
2022/07/06 10:16:16;;;;;;;4.80;0.32;;;;;;;;;;5046486;28;20239;-15
2022/07/06 10:18:45;;;;;;;1.48;0.30;;;;;;;;;;5046445;28;20281;-16
2022/07/06 10:21:13;;;;;;;4.53;0.30;;;;;;;;;;5049570;28;20264;-15
2022/07/06 10:23:40;;;;;;;3.60;0.60;;;;;;;;;;5049761;28;20665;-15
2022/07/06 10:26:07;;;;;;;1.75;0.30;;;;;;;;;;5048248;28;20238;-15
2022/07/06 10:28:40;;;;;;;0.90;0.25;;;;;;;;;;5048514;28;20988;-15
2022/07/06 10:31:07;;;;;;;1.55;0.30;;;;;;;;;;5042461;28;20234;-15
2022/07/06 10:33:35;;;;;;;2.63;0.30;;;;;;;;;;5049779;28;20288;-16
2022/07/06 10:36:04;;;;;;;5.28;0.77;;;;;;;;;;5047687;28;20989;-16
2022/07/06 10:38:31;;;;;;;2.15;0.40;;;;;;;;;;5050413;28;20227;-16
2022/07/06 10:41:04;;;;;;;2.30;0.45;;;;;;;;;;5048149;28;21013;-16
2022/07/06 10:43:32;;;;;;;1.67;0.50;;;;;;;;;;5049880;28;20234;-16
2022/07/06 10:45:59;;;;;;;1.40;0.43;;;;;;;;;;5048860;28;20237;-16
2022/07/06 10:48:28;;;;;;;2.75;1.00;;;;;;;;;;5047976;28;20329;-15
2022/07/06 10:50:59;;;;;;;4.03;1.80;;;;;;;;;;5047864;28;20324;-15
2022/07/06 10:53:28;;;;;;;2.35;1.23;;;;;;;;;;5048468;28;20238;-16
2022/07/06 10:55:56;;;;;;;6.25;1.48;;;;;;;;;;5049318;28;20236;-16
2022/07/06 10:58:40;;;;;;;1.90;1.70;;;;;;;;;;5048043;28;20411;-16
2022/07/06 11:01:08;;;;;;;3.65;1.52;;;;;;;;;;5048719;28;20232;-16
2022/07/06 11:03:36;;;;;;;4.95;2.20;;;;;;;;;;5046030;28;20286;-15
2022/07/06 11:06:05;;;;;;;3.75;2.40;;;;;;;;;;5049208;28;20427;-15
2022/07/06 11:08:44;;;;;;;4.22;2.22;;;;;;;;;;5047740;28;20384;-16
2022/07/06 11:11:12;;;;;;;3.85;1.50;;;;;;;;;;5050036;28;20293;-15
2022/07/06 11:13:48;;;;;;;2.80;1.20;;;;;;;;;;5047032;28;20238;-16
2022/07/06 11:16:16;;;;;;;6.80;1.40;;;;;;;;;;5048549;28;20241;-15
2022/07/06 11:18:46;;;;;;;6.95;1.20;;;;;;;;;;5049428;28;20756;-16
2022/07/06 11:21:17;;;;;;;5.75;1.50;;;;;;;;;;5045116;28;20739;-15
2022/07/06 11:23:47;;;;;;;8.75;1.27;;;;;;;;;;5047169;28;21122;-15
2022/07/06 11:26:15;;;;;;;5.15;1.17;;;;;;;;;;5043646;28;20619;-15
2022/07/06 11:28:42;;;;;;;5.55;1.00;;;;;;;;;;5048165;28;20256;-16
2022/07/06 11:31:09;;;;;;;2.20;0.63;;;;;;;;;;5044137;28;20238;-16
2022/07/06 11:33:37;;;;;;;6.30;0.70;;;;;;;;;;5047798;28;20893;-16
2022/07/06 11:36:12;;;;;;;5.50;0.73;;;;;;;;;;5045135;28;20234;-16
2022/07/06 11:38:39;;;;;;;1.35;0.55;;;;;;;;;;5047557;28;20237;-16
2022/07/06 11:41:08;;;;;;;1.85;0.30;;;;;;;;;;5046585;28;20229;-16
2022/07/06 11:43:37;;;;;;;2.42;0.60;;;;;;;;;;5047053;28;20234;-15
2022/07/06 11:46:04;;;;;;;2.50;0.60;;;;;;;;;;5036321;28;20235;-16
2022/07/06 11:48:32;;;;;;;7.22;0.63;;;;;;;;;;5043632;28;20292;-16
2022/07/06 11:51:00;;;;;;;5.60;0.75;;;;;;;;;;5047805;28;20240;-15
2022/07/06 11:53:27;;;;;;;1.02;0.50;;;;;;;;;;5046301;28;20242;-15
2022/07/06 11:55:54;;;;;;;2.47;0.50;;;;;;;;;;5048795;28;20230;-15
2022/07/06 11:58:23;;;;;;;3.83;0.50;;;;;;;;;;5045094;28;20713;-16
2022/07/06 12:01:06;;;;;;;3.13;0.43;;;;;;;;;;5047207;28;20244;-15
2022/07/06 12:03:34;;;;;;;1.08;0.50;;;;;;;;;;5044795;28;20230;-15
2022/07/06 12:06:02;;;;;;;3.63;0.40;;;;;;;;;;5044416;28;20313;-15
2022/07/06 12:08:29;;;;;;;1.48;0.60;;;;;;;;;;5046992;28;20234;-15
2022/07/06 12:10:57;;;;;;;4.47;0.75;;;;;;;;;;5046042;28;20238;-15
2022/07/06 12:13:25;;;;;;;2.38;0.45;;;;;;;;;;5047524;28;20289;-15
2022/07/06 12:15:54;;;;;;;0.98;0.50;;;;;;;;;;5046287;28;20727;-15
2022/07/06 12:18:21;;;;;;;4.20;0.68;;;;;;;;;;5041688;28;20238;-15
2022/07/06 12:20:48;;;;;;;3.40;0.60;;;;;;;;;;5044892;28;20230;-15
2022/07/06 12:23:16;;;;;;;0.85;0.45;;;;;;;;;;5047811;28;20296;-15
2022/07/06 12:25:43;;;;;;;1.88;0.45;;;;;;;;;;5044913;28;20238;-16
2022/07/06 12:28:22;;;;;;;1.42;0.40;;;;;;;;;;5048940;28;20230;-16
2022/07/06 12:30:50;;;;;;;1.17;0.50;;;;;;;;;;5048548;28;20261;-15
2022/07/06 12:33:18;;;;;;;0.50;0.45;;;;;;;;;;5050642;28;20241;-15
2022/07/06 12:35:45;;;;;;;1.42;0.40;;;;;;;;;;5049554;28;20233;-15
2022/07/06 12:38:13;;;;;;;2.17;0.52;;;;;;;;;;5049914;28;20238;-15
2022/07/06 12:40:40;;;;;;;1.85;0.50;;;;;;;;;;5049368;28;20226;-15
2022/07/06 12:43:08;;;;;;;1.95;0.47;;;;;;;;;;5050041;28;20234;-15
2022/07/06 12:45:35;;;;;;;0.80;0.30;;;;;;;;;;5050976;28;20230;-15
2022/07/06 12:48:05;;;;;;;2.63;0.50;;;;;;;;;;5049250;28;20269;-15
2022/07/06 12:50:33;;;;;;;3.40;0.40;;;;;;;;;;5049842;28;20234;-16
2022/07/06 12:53:00;;;;;;;1.42;0.45;;;;;;;;;;5045497;28;20731;-16
2022/07/06 12:55:28;;;;;;;1.98;0.40;;;;;;;;;;5050001;28;20233;-15
2022/07/06 12:57:55;;;;;;;1.15;0.40;;;;;;;;;;5049551;28;20230;-15
2022/07/06 13:00:23;;;;;;;1.30;0.50;;;;;;;;;;5049646;28;20645;-15
2022/07/06 13:02:53;;;;;;;1.27;0.43;;;;;;;;;;5049090;28;20230;-15
2022/07/06 13:05:38;;;;;;;2.58;0.45;;;;;;;;;;5044373;28;20269;-15
2022/07/06 13:08:06;;;;;;;2.03;0.50;;;;;;;;;;5050587;28;20284;-15
2022/07/06 13:10:35;;;;;;;1.52;0.60;;;;;;;;;;5048352;28;20331;-15
2022/07/06 13:13:02;;;;;;;1.40;0.40;;;;;;;;;;5043437;28;20242;-15
2022/07/06 13:15:30;;;;;;;2.08;0.45;;;;;;;;;;5047597;28;20238;-15
2022/07/06 13:17:57;;;;;;;1.38;0.45;;;;;;;;;;5050504;28;20230;-15
2022/07/06 13:20:25;;;;;;;0.57;0.30;;;;;;;;;;5041806;28;20235;-16
2022/07/06 13:22:53;;;;;;;2.05;0.40;;;;;;;;;;5047774;28;20291;-15
2022/07/06 13:25:21;;;;;;;0.85;0.32;;;;;;;;;;5049541;28;21078;-15
2022/07/06 13:27:48;;;;;;;1.40;0.55;;;;;;;;;;5047956;28;20984;-15
2022/07/06 13:30:15;;;;;;;1.50;0.50;;;;;;;;;;5050008;28;20611;-15
2022/07/06 13:32:43;;;;;;;1.98;0.40;;;;;;;;;;5047858;28;20886;-15
2022/07/06 13:35:10;;;;;;;0.88;0.30;;;;;;;;;;5049924;28;20296;-15
2022/07/06 13:37:37;;;;;;;1.35;0.57;;;;;;;;;;5045267;28;20242;-15
2022/07/06 13:40:07;;;;;;;1.05;0.30;;;;;;;;;;5049771;28;20637;-15
2022/07/06 13:42:34;;;;;;;2.10;0.40;;;;;;;;;;5044421;28;20227;-16
2022/07/06 13:45:01;;;;;;;3.00;0.40;;;;;;;;;;5050420;28;20231;-15
2022/07/06 13:47:29;;;;;;;2.33;0.50;;;;;;;;;;5047037;28;20258;-15
2022/07/06 13:49:56;;;;;;;1.75;0.40;;;;;;;;;;5049048;28;20238;-15
2022/07/06 13:52:24;;;;;;;2.22;0.40;;;;;;;;;;5049123;28;20237;-15
2022/07/06 13:54:51;;;;;;;2.90;0.70;;;;;;;;;;5041987;28;20285;-15
2022/07/06 13:57:27;;;;;;;2.90;0.50;;;;;;;;;;5049566;28;20527;-16
2022/07/06 13:59:54;;;;;;;5.25;0.75;;;;;;;;;;5047229;28;20487;-16
2022/07/06 14:02:21;;;;;;;2.70;0.55;;;;;;;;;;5047695;28;20732;-15
2022/07/06 14:04:49;;;;;;;3.00;0.47;;;;;;;;;;5046020;28;20242;-16
2022/07/06 14:07:17;;;;;;;3.88;0.60;;;;;;;;;;5050161;28;20252;-16
2022/07/06 14:09:51;;;;;;;2.33;0.65;;;;;;;;;;5045646;28;20241;-16
2022/07/06 14:12:19;;;;;;;3.25;0.77;;;;;;;;;;5047218;28;20234;-16
2022/07/06 14:14:47;;;;;;;2.53;0.55;;;;;;;;;;5048066;28;20244;-15
2022/07/06 14:17:15;;;;;;;2.15;0.50;;;;;;;;;;5048433;28;20264;-16
2022/07/06 14:19:42;;;;;;;2.55;0.65;;;;;;;;;;5046949;28;20237;-16
2022/07/06 14:22:10;;;;;;;3.72;0.50;;;;;;;;;;5048195;28;20242;-15
2022/07/06 14:24:37;;;;;;;1.48;0.40;;;;;;;;;;5048876;28;20230;-15
2022/07/06 14:27:05;;;;;;;1.02;0.40;;;;;;;;;;5047230;28;20234;-16
2022/07/06 14:29:32;;;;;;;1.48;0.40;;;;;;;;;;5049770;28;20244;-15
2022/07/06 14:32:01;;;;;;;3.72;0.47;;;;;;;;;;5047449;28;20732;-16
2022/07/06 14:34:28;;;;;;;2.50;0.57;;;;;;;;;;5047916;28;20320;-15
2022/07/06 14:36:56;;;;;;;6.47;0.60;;;;;;;;;;5048532;28;21128;-15
2022/07/06 14:39:23;;;;;;;2.40;0.65;;;;;;;;;;5047759;28;20234;-16
2022/07/06 14:41:50;;;;;;;2.45;0.50;;;;;;;;;;5047396;28;20232;-15
2022/07/06 14:44:18;;;;;;;2.05;0.45;;;;;;;;;;5042794;28;20241;-15
2022/07/06 14:46:45;;;;;;;10.65;0.68;;;;;;;;;;5049179;28;20234;-15
2022/07/06 14:49:14;;;;;;;1.40;0.45;;;;;;;;;;5045281;28;20240;-15
2022/07/06 14:51:47;;;;;;;7.05;0.70;;;;;;;;;;5043614;28;20273;-15
2022/07/06 14:54:14;;;;;;;5.25;0.45;;;;;;;;;;5045331;28;20230;-15
2022/07/06 14:56:42;;;;;;;2.88;0.50;;;;;;;;;;5049155;28;20957;-15
2022/07/06 14:59:10;;;;;;;3.25;0.47;;;;;;;;;;5048206;28;20234;-16